Pagrindinis puslapis
METAR-TAF:

METAR-TAF

Oro uostai :

Tegusigalpa, Hondūras

platuma: 14-03N, ilguma: 087-13W, Aukštis: 994 m

Dabartinis oras

Ataskaita buvo paskelbta 52 minutes, ne 16:00 UTC
Vėjas 10 kt iš Šiaurės
Temperatūra 21°C
Drėgmė 69%
Slėgis 1024 hPa
Matomumas 10 km arba daugiau
Išsisklaidę debesys ne aukštis 2800 ft

METAR: MHTG 201600Z 35010KT 9999 SCT028 21/15 Q1024 A3024 NOSIG

Laikas: 10:52 (16:52 UTC)

Prognozė

Ataskaita buvo paskelbta 6 valandos ir 22 minutes, ne 10:30 UTC
Prognozė galioja nuo 20 metu 12 UTC su 21 metu 12 UTC
Vėjas 5 kt iš Šiaurės
Matomumas: 8000 m
Mažai debesys ne aukštis 800 ft
Išsisklaidę debesys ne aukštis 2600 ft
Tapsmas
nuo 20 metu 14 UTC su 20 metu 16 UTC
Vėjas 8 kt iš Rytų/Šiaurės Rytų
Matomumas 10 km arba daugiau
Išsisklaidę debesys ne aukštis 3200 ft
Tapsmas
nuo 21 metu 04 UTC su 21 metu 06 UTC
Vėjas 4 kt iš Šiaurės
Su prošvaistėmis ne aukštis 2600 ft

TAF: MHTG 201030Z 2012/2112 36005KT 8000 FEW008 SCT026 TX26/2020Z TN16/2112Z BECMG 2014/2016 06008KT 9999 SCT032 BECMG 2104/2106 36004KT BKN026

Orai ataskaitas ir orų prognozės (METAR, TAF).

turimą stotys yra geltonos ir raudonos taškus žemėlapyje.

Perkelti pele per norėdami pamatyti stoties vardą.

Tada spustelėkite, norėdami matyti oro stebėjimo ir prognozės.

Norėdami pakeisti žemėlapį: spustelėkite ant žalios mygtukų su juodo kryžiaus žemyn,; žalią mygtuką su brūkšneliu, jei norite nutolinti; arba žalių rodyklių gretimoms žemėlapius.


METAR-TAF: